createdAt,value
2018-12-29T00:02:16.960Z,77.84
2018-12-29T00:07:41.008Z,77.86
2018-12-29T00:13:00.345Z,77.47
2018-12-29T00:18:20.663Z,77.88
2018-12-29T00:23:40.274Z,77.64
2018-12-29T00:28:59.531Z,77.80
2018-12-29T00:34:19.568Z,77.24
2018-12-29T00:39:39.964Z,77.21
2018-12-29T00:45:02.735Z,76.31
2018-12-29T00:50:18.639Z,76.02
2018-12-29T00:55:38.611Z,75.58
2018-12-29T01:00:58.195Z,75.07
2018-12-29T01:06:18.619Z,74.71
2018-12-29T01:11:37.846Z,74.76
2018-12-29T01:16:57.926Z,75.25
2018-12-29T01:22:17.330Z,75.35
2018-12-29T01:27:37.031Z,75.70
2018-12-29T01:32:56.546Z,76.19
2018-12-29T01:38:15.493Z,76.35
2018-12-29T01:43:34.545Z,76.51
2018-12-29T01:48:54.083Z,77.15
2018-12-29T01:54:13.594Z,77.19
2018-12-29T01:59:32.715Z,77.66
2018-12-29T02:04:52.119Z,77.85
2018-12-29T02:10:11.510Z,78.17
2018-12-29T02:15:31.194Z,77.33
2018-12-29T02:20:50.462Z,76.91
2018-12-29T02:26:09.602Z,76.43
2018-12-29T02:31:28.848Z,75.67
2018-12-29T02:36:48.094Z,75.58
2018-12-29T02:42:07.471Z,75.68
2018-12-29T02:47:26.844Z,75.93
2018-12-29T02:52:46.157Z,76.21
2018-12-29T02:58:05.525Z,76.18
2018-12-29T03:03:25.394Z,76.29
2018-12-29T03:09:05.238Z,76.27
2018-12-29T03:14:24.894Z,76.18
2018-12-29T03:19:44.446Z,75.86
2018-12-29T03:25:04.404Z,76.06
2018-12-29T03:30:24.013Z,75.57
2018-12-29T03:35:43.188Z,75.89
2018-12-29T03:41:02.377Z,76.07
2018-12-29T03:46:21.930Z,76.34
2018-12-29T03:51:41.310Z,77.02
2018-12-29T03:57:00.293Z,76.96
2018-12-29T04:02:20.391Z,76.99
2018-12-29T04:07:39.632Z,77.03
2018-12-29T04:13:00.341Z,77.12
2018-12-29T04:18:21.467Z,77.05
2018-12-29T04:23:41.171Z,77.08
2018-12-29T04:29:01.128Z,77.26
2018-12-29T04:34:20.921Z,77.26
2018-12-29T04:39:40.173Z,77.48
2018-12-29T04:44:59.358Z,77.37
2018-12-29T04:50:18.868Z,77.67
2018-12-29T04:55:38.157Z,77.79
2018-12-29T05:00:57.872Z,77.98
2018-12-29T05:06:17.380Z,77.87
2018-12-29T05:11:36.648Z,77.68
2018-12-29T05:16:59.742Z,77.55
2018-12-29T05:22:19.281Z,77.42
2018-12-29T05:27:39.533Z,77.02
2018-12-29T05:32:59.478Z,76.59
2018-12-29T05:38:19.877Z,76.73
2018-12-29T05:43:38.900Z,76.67
2018-12-29T05:48:58.168Z,76.64
2018-12-29T05:54:19.639Z,76.48
2018-12-29T05:59:39.421Z,76.88
2018-12-29T06:04:59.239Z,76.64
2018-12-29T06:10:21.802Z,76.59
2018-12-29T06:15:42.916Z,77.00
2018-12-29T06:21:02.265Z,76.74
2018-12-29T06:26:21.498Z,76.87
2018-12-29T06:31:40.887Z,77.06
2018-12-29T06:37:00.963Z,77.14
2018-12-29T06:42:24.896Z,77.31
2018-12-29T06:47:45.236Z,77.46
2018-12-29T06:53:04.980Z,77.90
2018-12-29T06:58:24.114Z,78.10
2018-12-29T07:03:44.018Z,78.72
2018-12-29T07:09:05.359Z,79.25
2018-12-29T07:14:24.705Z,79.25
2018-12-29T07:19:44.568Z,79.18
2018-12-29T07:25:04.398Z,79.20
2018-12-29T07:30:23.734Z,79.00
2018-12-29T07:35:45.090Z,78.81
2018-12-29T07:41:04.610Z,78.91
2018-12-29T07:46:24.016Z,78.82
2018-12-29T07:51:43.345Z,78.76
2018-12-29T07:57:02.745Z,79.45
2018-12-29T08:02:22.073Z,80.25
2018-12-29T08:07:41.207Z,79.55
2018-12-29T08:13:00.280Z,79.55
2018-12-29T08:18:20.626Z,79.07
2018-12-29T08:23:40.026Z,78.38
2018-12-29T08:29:01.631Z,78.50
2018-12-29T08:34:24.029Z,77.62
2018-12-29T08:39:42.908Z,77.29
2018-12-29T08:45:02.112Z,76.97
2018-12-29T08:50:22.177Z,76.05
2018-12-29T08:55:41.638Z,75.82
2018-12-29T09:01:01.963Z,75.75
2018-12-29T09:06:22.119Z,74.61
2018-12-29T09:11:41.577Z,73.37
2018-12-29T09:17:01.343Z,71.53
2018-12-29T09:22:20.751Z,70.59
2018-12-29T09:27:40.691Z,70.23
2018-12-29T09:32:59.937Z,69.07
2018-12-29T09:38:19.757Z,68.16
2018-12-29T09:43:39.223Z,66.83
2018-12-29T09:48:58.806Z,67.55
2018-12-29T09:54:18.598Z,65.49
2018-12-29T09:59:38.232Z,63.72
2018-12-29T10:04:58.996Z,63.97
2018-12-29T10:10:18.757Z,64.59
2018-12-29T10:15:38.056Z,64.41
2018-12-29T10:20:57.892Z,65.07
2018-12-29T10:26:17.286Z,66.67
2018-12-29T10:31:36.591Z,67.95
2018-12-29T10:36:55.747Z,69.80
2018-12-29T10:42:14.968Z,70.43
2018-12-29T10:47:35.521Z,71.70
2018-12-29T10:52:55.490Z,71.76
2018-12-29T10:58:16.104Z,71.50
2018-12-29T11:03:36.595Z,70.46
2018-12-29T11:08:56.346Z,70.38
2018-12-29T11:14:15.657Z,69.91
2018-12-29T11:19:35.513Z,70.64
2018-12-29T11:24:55.640Z,70.77
2018-12-29T11:30:15.941Z,70.53
2018-12-29T11:35:35.918Z,71.09
2018-12-29T11:40:55.133Z,71.12
2018-12-29T11:46:14.419Z,71.59
2018-12-29T11:51:34.525Z,71.75
2018-12-29T11:56:53.973Z,72.05
2018-12-29T12:02:13.771Z,72.34
2018-12-29T12:07:33.080Z,72.53
2018-12-29T12:12:52.400Z,72.87
2018-12-29T12:18:12.080Z,72.56
2018-12-29T12:23:31.704Z,72.09
2018-12-29T12:28:50.755Z,71.25
2018-12-29T12:34:10.179Z,70.45
2018-12-29T12:39:29.356Z,70.51
2018-12-29T12:44:50.396Z,72.25
2018-12-29T12:50:11.134Z,73.24
2018-12-29T12:55:30.227Z,74.61
2018-12-29T13:00:49.642Z,75.73
2018-12-29T13:06:09.354Z,76.51
2018-12-29T13:11:29.002Z,77.15
2018-12-29T13:16:48.473Z,77.64
2018-12-29T13:22:07.660Z,78.03
2018-12-29T13:27:27.192Z,77.76
2018-12-29T13:32:46.228Z,78.25
2018-12-29T13:38:06.892Z,78.25
2018-12-29T13:43:27.110Z,79.42
2018-12-29T13:48:46.708Z,79.42
2018-12-29T13:54:05.677Z,79.69
2018-12-29T13:59:24.892Z,79.39
2018-12-29T14:04:44.017Z,79.03
2018-12-29T14:10:04.025Z,79.03
2018-12-29T14:15:24.198Z,79.29
2018-12-29T14:20:44.288Z,79.29
2018-12-29T14:26:04.662Z,78.97
2018-12-29T14:31:23.864Z,78.97
2018-12-29T14:36:44.084Z,78.75
2018-12-29T14:43:00.032Z,79.17
2018-12-29T14:48:18.309Z,78.84
2018-12-29T14:53:38.379Z,78.50
2018-12-29T14:58:57.400Z,78.15
2018-12-29T15:04:52.858Z,77.53
2018-12-29T15:10:12.562Z,76.12
2018-12-29T15:15:32.287Z,76.12
2018-12-29T15:20:51.590Z,76.67
2018-12-29T15:26:11.738Z,76.67
2018-12-29T15:31:30.765Z,76.29
2018-12-29T15:36:51.031Z,75.75
2018-12-29T15:42:11.596Z,76.94
2018-12-29T15:47:35.233Z,76.94
2018-12-29T15:52:58.193Z,76.88
2018-12-29T15:58:18.620Z,77.58
2018-12-29T16:03:39.208Z,78.30
2018-12-29T16:08:58.906Z,78.91
2018-12-29T16:14:19.115Z,80.20
2018-12-29T16:19:39.176Z,80.71
2018-12-29T16:24:59.878Z,80.52
2018-12-29T16:30:19.974Z,81.18
2018-12-29T16:35:40.327Z,81.30
2018-12-29T16:41:02.843Z,81.91
2018-12-29T16:46:22.804Z,82.15
2018-12-29T16:51:42.726Z,81.81
2018-12-29T16:57:03.053Z,81.81
2018-12-29T17:02:22.598Z,81.80
2018-12-29T17:07:44.191Z,82.27
2018-12-29T17:13:04.735Z,82.73
2018-12-29T17:18:25.019Z,83.30
2018-12-29T17:23:45.168Z,83.90
2018-12-29T17:29:06.095Z,84.58
2018-12-29T17:34:28.337Z,84.81
2018-12-29T17:39:48.277Z,84.33
2018-12-29T17:45:07.624Z,83.12
2018-12-29T17:50:27.610Z,82.51
2018-12-29T17:55:48.308Z,82.85
2018-12-29T18:01:11.563Z,82.85
2018-12-29T18:06:31.011Z,82.69
2018-12-29T18:11:52.015Z,82.22
2018-12-29T18:17:11.148Z,82.30
2018-12-29T18:22:30.454Z,82.03
2018-12-29T18:27:50.738Z,82.25
2018-12-29T18:33:10.711Z,82.24
2018-12-29T18:38:30.456Z,82.16
2018-12-29T18:43:50.483Z,81.95
2018-12-29T18:49:10.312Z,81.56
2018-12-29T18:54:29.849Z,81.50
2018-12-29T18:59:50.271Z,81.20
2018-12-29T19:05:11.352Z,81.05
2018-12-29T19:10:31.190Z,81.35
2018-12-29T19:15:51.099Z,80.68
2018-12-29T19:21:10.722Z,80.62
2018-12-29T19:26:30.346Z,80.53
2018-12-29T19:31:52.471Z,80.50
2018-12-29T19:37:10.270Z,80.42
2018-12-29T19:42:31.117Z,79.99
2018-12-29T19:47:50.475Z,80.01
2018-12-29T19:53:09.796Z,80.36
2018-12-29T19:58:30.102Z,79.81
2018-12-29T20:03:49.935Z,79.64
2018-12-29T20:09:09.583Z,79.87
2018-12-29T20:14:29.460Z,79.19
2018-12-29T20:19:50.042Z,79.70
2018-12-29T20:25:10.623Z,80.09
2018-12-29T20:30:32.164Z,79.62
2018-12-29T20:35:52.058Z,79.84
2018-12-29T20:41:13.149Z,79.51
2018-12-29T20:46:34.260Z,79.80
2018-12-29T20:51:53.987Z,79.95
2018-12-29T20:57:14.142Z,80.30
2018-12-29T21:02:34.326Z,80.28
2018-12-29T21:07:54.026Z,80.23
2018-12-29T21:13:14.227Z,80.67
2018-12-29T21:18:34.778Z,80.51
2018-12-29T21:23:54.304Z,80.95
2018-12-29T21:29:13.758Z,81.15
2018-12-29T21:34:33.342Z,80.69
2018-12-29T21:39:52.960Z,80.76
2018-12-29T21:45:12.914Z,81.15
2018-12-29T21:50:32.554Z,80.90
2018-12-29T21:55:52.248Z,81.68
2018-12-29T22:01:12.299Z,81.87
2018-12-29T22:06:32.029Z,81.44
2018-12-29T22:11:51.637Z,81.55
2018-12-29T22:17:11.537Z,82.12
2018-12-29T22:22:31.361Z,81.92
2018-12-29T22:27:50.462Z,81.70
2018-12-29T22:33:09.531Z,81.60
2018-12-29T22:38:28.858Z,81.21
2018-12-29T22:43:48.876Z,81.28
2018-12-29T22:49:08.866Z,81.24
2018-12-29T22:54:27.681Z,81.32
2018-12-29T22:59:47.472Z,81.09
2018-12-29T23:05:06.850Z,81.07
2018-12-29T23:10:26.411Z,80.76
2018-12-29T23:15:46.704Z,80.29
2018-12-29T23:21:05.970Z,80.30
2018-12-29T23:26:26.263Z,80.75
2018-12-29T23:31:44.908Z,80.21
2018-12-29T23:37:04.100Z,80.54
2018-12-29T23:42:23.996Z,80.11
2018-12-29T23:47:44.710Z,80.92
2018-12-29T23:53:05.381Z,81.70
2018-12-29T23:58:25.216Z,81.04
